createdAt,value
2023-03-06T00:00:25.061Z,99596.78
2023-03-06T00:02:53.302Z,99589.75
2023-03-06T00:05:21.800Z,99601.13
2023-03-06T00:07:49.967Z,99587.75
2023-03-06T00:10:22.805Z,99415.59
2023-03-06T00:12:55.363Z,99519.16
2023-03-06T00:15:24.559Z,99592.28
2023-03-06T00:17:53.203Z,99587.91
2023-03-06T00:20:22.887Z,99509.59
2023-03-06T00:22:51.336Z,99576.38
2023-03-06T00:25:22.211Z,99584.41
2023-03-06T00:27:51.075Z,99583.41
2023-03-06T00:30:22.481Z,99583.41
2023-03-06T00:32:51.177Z,99499.16
2023-03-06T00:35:19.551Z,99577.03
2023-03-06T00:37:47.781Z,99471.06
2023-03-06T00:40:17.602Z,99571.69
2023-03-06T00:42:45.934Z,99487.94
2023-03-06T00:45:14.519Z,99567.50
2023-03-06T00:47:44.588Z,99570.03
2023-03-06T00:50:13.015Z,99404.81
2023-03-06T00:52:42.179Z,99564.69
2023-03-06T00:55:11.700Z,99558.47
2023-03-06T00:57:39.828Z,99563.00
2023-03-06T01:00:10.025Z,99564.69
2023-03-06T01:02:38.160Z,99557.66
2023-03-06T01:05:09.674Z,99556.00
2023-03-06T01:07:37.904Z,99556.81
2023-03-06T01:10:08.076Z,99557.66
2023-03-06T01:12:36.570Z,99560.34
2023-03-06T01:15:05.591Z,99555.00
2023-03-06T01:17:33.778Z,99545.31
2023-03-06T01:20:01.946Z,99470.44
2023-03-06T01:22:31.535Z,99541.94
2023-03-06T01:24:59.671Z,99541.63
2023-03-06T01:27:27.883Z,99540.78
2023-03-06T01:29:56.132Z,99531.25
2023-03-06T01:32:24.348Z,99540.78
2023-03-06T01:34:52.489Z,99528.41
2023-03-06T01:37:20.694Z,99529.25
2023-03-06T01:39:50.418Z,99530.94
2023-03-06T01:42:18.557Z,99528.25
2023-03-06T01:45:10.735Z,99532.59
2023-03-06T01:47:38.872Z,99523.91
2023-03-06T01:50:09.701Z,99513.53
2023-03-06T01:52:45.048Z,99519.19
2023-03-06T01:55:17.359Z,99518.56
2023-03-06T01:57:48.377Z,99518.56
2023-03-06T02:00:20.259Z,99522.22
2023-03-06T02:02:53.051Z,99513.22
2023-03-06T02:05:21.548Z,99518.56
2023-03-06T02:07:51.807Z,99507.88
2023-03-06T02:10:22.198Z,99507.03
2023-03-06T02:12:52.250Z,99514.16
2023-03-06T02:15:25.886Z,99505.19
2023-03-06T02:17:54.476Z,99506.16
2023-03-06T02:20:30.654Z,99503.50
2023-03-06T02:23:05.766Z,99502.84
2023-03-06T02:25:38.269Z,99496.31
2023-03-06T02:28:09.325Z,99497.16
2023-03-06T02:30:38.684Z,99502.53
2023-03-06T02:33:07.341Z,99412.53
2023-03-06T02:35:37.434Z,99490.13
2023-03-06T02:38:10.159Z,99491.13
2023-03-06T02:40:40.016Z,99490.13
2023-03-06T02:43:08.787Z,99468.88
2023-03-06T02:45:39.475Z,99479.44
2023-03-06T02:48:08.549Z,99480.28
2023-03-06T02:50:36.909Z,99479.44
2023-03-06T02:53:05.040Z,99479.44
2023-03-06T02:55:33.346Z,99478.78
2023-03-06T02:58:03.141Z,99474.09
2023-03-06T03:00:31.464Z,99479.44
2023-03-06T03:02:59.746Z,99468.06
2023-03-06T03:05:27.967Z,99369.56
2023-03-06T03:07:56.088Z,99468.72
2023-03-06T03:10:24.296Z,99285.03
2023-03-06T03:12:52.521Z,99281.09
2023-03-06T03:15:22.207Z,99383.28
2023-03-06T03:17:50.421Z,99465.25
2023-03-06T03:20:20.275Z,99467.06
2023-03-06T03:22:52.588Z,99458.66
2023-03-06T03:25:21.958Z,99461.72
2023-03-06T03:27:50.430Z,99458.03
2023-03-06T03:30:19.059Z,99464.41
2023-03-06T03:32:48.699Z,99461.72
2023-03-06T03:35:17.010Z,99455.38
2023-03-06T03:37:45.221Z,99337.91
2023-03-06T03:40:14.384Z,99452.69
2023-03-06T03:42:42.525Z,99451.03
2023-03-06T03:45:11.530Z,99452.84
2023-03-06T03:47:40.666Z,99444.97
2023-03-06T03:50:12.315Z,99445.69
2023-03-06T03:52:40.560Z,99442.31
2023-03-06T03:55:09.749Z,99445.69
2023-03-06T03:57:39.323Z,99438.66
2023-03-06T04:00:09.841Z,99449.34
2023-03-06T04:02:38.002Z,99439.63
2023-03-06T04:05:07.163Z,99427.97
2023-03-06T04:07:36.842Z,99430.63
2023-03-06T04:10:05.468Z,99432.47
2023-03-06T04:12:33.591Z,99426.59
2023-03-06T04:15:01.719Z,99339.16
2023-03-06T04:17:29.893Z,99427.97
2023-03-06T04:19:58.135Z,99426.28
2023-03-06T04:22:26.276Z,99415.91
2023-03-06T04:24:55.871Z,99417.59
2023-03-06T04:27:24.050Z,99421.78
2023-03-06T04:29:54.204Z,99416.41
2023-03-06T04:32:22.498Z,99328.47
2023-03-06T04:34:50.675Z,99415.56
2023-03-06T04:37:22.246Z,99336.16
2023-03-06T04:39:50.628Z,99408.41
2023-03-06T04:42:20.362Z,99401.56
2023-03-06T04:44:48.539Z,99403.91
2023-03-06T04:47:19.040Z,99406.56
2023-03-06T04:49:47.511Z,99401.22
2023-03-06T04:52:15.540Z,99401.22
2023-03-06T04:54:44.028Z,99410.22
2023-03-06T04:57:13.022Z,99398.56
2023-03-06T04:59:42.589Z,99399.53
2023-03-06T05:02:10.749Z,99375.09
2023-03-06T05:04:38.840Z,99394.19
2023-03-06T05:07:07.020Z,99395.03
2023-03-06T05:09:36.186Z,99361.84
2023-03-06T05:12:05.623Z,99284.66
2023-03-06T05:14:33.722Z,99388.84
2023-03-06T05:17:03.308Z,99394.19
2023-03-06T05:19:31.480Z,99388.84
2023-03-06T05:21:59.592Z,99390.53
2023-03-06T05:24:27.792Z,99386.84
2023-03-06T05:26:55.934Z,99385.19
2023-03-06T05:29:24.142Z,99382.66
2023-03-06T05:31:52.488Z,99385.19
2023-03-06T05:34:22.507Z,99393.84
2023-03-06T05:36:50.599Z,99376.16
2023-03-06T05:39:18.901Z,99382.34
2023-03-06T05:41:47.013Z,99383.47
2023-03-06T05:44:15.237Z,99376.16
2023-03-06T05:46:43.293Z,99379.84
2023-03-06T05:49:11.393Z,99385.19
2023-03-06T05:51:40.879Z,99382.84
2023-03-06T05:54:09.053Z,99286.38
2023-03-06T05:56:37.619Z,99378.13
2023-03-06T05:59:05.667Z,99379.84
2023-03-06T06:01:33.856Z,99374.50
2023-03-06T06:04:02.037Z,99379.84
2023-03-06T06:06:30.137Z,99372.78
2023-03-06T06:08:59.617Z,99372.78
2023-03-06T06:11:27.772Z,99379.84
2023-03-06T06:13:55.889Z,99372.78
2023-03-06T06:16:24.012Z,99366.47
2023-03-06T06:18:52.149Z,99378.13
2023-03-06T06:21:22.061Z,99374.50
2023-03-06T06:23:50.194Z,99372.78
2023-03-06T06:26:19.677Z,99368.13
2023-03-06T06:28:47.724Z,99370.81
2023-03-06T06:31:15.867Z,99372.78
2023-03-06T06:33:44.319Z,99369.97
2023-03-06T06:36:19.690Z,99377.81
2023-03-06T06:38:48.075Z,99370.81
2023-03-06T06:41:42.281Z,99287.09
2023-03-06T06:44:08.955Z,99369.13
2023-03-06T06:49:25.976Z,99374.50
2023-03-06T06:51:54.106Z,99364.13
2023-03-06T06:54:23.476Z,99386.31
2023-03-06T06:56:51.735Z,99368.28
2023-03-06T06:59:23.674Z,99227.13
2023-03-06T07:01:52.140Z,99373.47
2023-03-06T07:04:21.154Z,99375.31
2023-03-06T07:06:49.560Z,99386.84
2023-03-06T07:09:17.766Z,99376.16
2023-03-06T07:11:45.895Z,99370.13
2023-03-06T07:14:14.040Z,99378.81
2023-03-06T07:16:43.560Z,99381.50
2023-03-06T07:19:11.681Z,99376.16
2023-03-06T07:21:39.777Z,99378.13
2023-03-06T07:24:08.156Z,99373.13
2023-03-06T07:26:36.364Z,99375.63
2023-03-06T07:29:05.588Z,99381.81
2023-03-06T07:31:34.012Z,99376.78
2023-03-06T07:34:05.032Z,99380.97
2023-03-06T07:36:33.994Z,99381.81
2023-03-06T07:39:02.235Z,99380.81
2023-03-06T07:41:30.396Z,99383.47
2023-03-06T07:43:58.470Z,99381.50
2023-03-06T07:46:26.795Z,99383.47
2023-03-06T07:48:54.969Z,99387.00
2023-03-06T07:51:24.466Z,99383.16
2023-03-06T07:53:52.543Z,99384.19
2023-03-06T07:56:20.648Z,99383.16
2023-03-06T07:58:49.212Z,99385.84
2023-03-06T08:01:19.952Z,99306.13
2023-03-06T08:03:50.226Z,99276.66
2023-03-06T08:06:19.717Z,99312.13
2023-03-06T08:08:50.587Z,99384.84
2023-03-06T08:11:22.432Z,99390.22
2023-03-06T08:13:52.826Z,99390.22
2023-03-06T08:16:21.962Z,99395.56
2023-03-06T08:18:50.138Z,99393.84
2023-03-06T08:21:20.496Z,99399.22
2023-03-06T08:23:49.990Z,99388.50
2023-03-06T08:26:20.287Z,99388.50
2023-03-06T08:28:48.730Z,99394.72
2023-03-06T08:31:26.154Z,99390.22
2023-03-06T08:33:54.638Z,99387.69
2023-03-06T08:36:22.683Z,99393.84
2023-03-06T08:38:52.416Z,99393.84
2023-03-06T08:41:21.339Z,99406.25
2023-03-06T08:43:49.677Z,99399.91
2023-03-06T08:46:19.287Z,99398.22
2023-03-06T08:48:48.474Z,99400.91
2023-03-06T08:51:17.372Z,99312.13
2023-03-06T08:53:46.492Z,99395.56
2023-03-06T08:56:20.759Z,99397.38
2023-03-06T08:58:49.284Z,99401.72
2023-03-06T09:01:18.570Z,99399.22
2023-03-06T09:03:46.810Z,99394.72
2023-03-06T09:06:15.414Z,99391.34
2023-03-06T09:08:44.732Z,99393.84
2023-03-06T09:11:13.430Z,99396.53
2023-03-06T09:13:43.648Z,99403.56
2023-03-06T09:16:13.182Z,99298.44
2023-03-06T09:18:41.642Z,99399.22
2023-03-06T09:21:10.843Z,99383.81
2023-03-06T09:23:40.188Z,99400.91
2023-03-06T09:26:08.797Z,99391.88
2023-03-06T09:28:37.125Z,99389.53
2023-03-06T09:31:10.709Z,99395.56
2023-03-06T09:33:39.316Z,99393.53
2023-03-06T09:36:09.050Z,99391.88
2023-03-06T09:38:37.130Z,99386.53
2023-03-06T09:43:39.853Z,99381.19
2023-03-06T09:46:18.151Z,99373.13
2023-03-06T09:48:58.281Z,99386.53
2023-03-06T09:51:34.292Z,99386.53
2023-03-06T09:54:12.384Z,99386.53
2023-03-06T09:56:45.333Z,99384.84
2023-03-06T09:59:17.884Z,99390.22
2023-03-06T10:01:59.032Z,99388.34
2023-03-06T10:04:35.733Z,99386.53
2023-03-06T10:07:13.618Z,99382.19
2023-03-06T10:09:49.571Z,99389.19
2023-03-06T10:12:26.654Z,99379.50
2023-03-06T10:15:03.860Z,99383.84
2023-03-06T10:17:37.727Z,99384.84
2023-03-06T10:20:18.802Z,99384.84
2023-03-06T10:23:00.689Z,99376.84
2023-03-06T10:25:37.993Z,99371.50
2023-03-06T10:28:16.877Z,99334.94
2023-03-06T10:30:53.091Z,99381.19
2023-03-06T10:33:36.483Z,99374.16
2023-03-06T10:36:05.008Z,99370.47
2023-03-06T10:38:38.367Z,99371.31
2023-03-06T10:41:09.234Z,99267.03
2023-03-06T10:43:38.652Z,99375.84
2023-03-06T10:46:07.672Z,99370.47
2023-03-06T10:48:40.884Z,99365.94
2023-03-06T10:51:19.522Z,99379.16
2023-03-06T10:53:55.978Z,99366.78
2023-03-06T10:56:33.170Z,99365.94
2023-03-06T10:59:08.048Z,99319.94
2023-03-06T11:01:36.594Z,99361.44
2023-03-06T11:04:25.040Z,99260.34
2023-03-06T11:07:14.845Z,99361.44
2023-03-06T11:09:44.413Z,99362.47
2023-03-06T11:12:23.689Z,99356.09
2023-03-06T11:15:14.323Z,99367.66
2023-03-06T11:17:51.157Z,99356.09
2023-03-06T11:20:23.447Z,99362.28
2023-03-06T11:22:56.277Z,99366.78
2023-03-06T11:25:30.214Z,99361.44
2023-03-06T11:28:03.487Z,99366.78
2023-03-06T11:30:37.422Z,99361.44
2023-03-06T11:33:12.495Z,99361.44
2023-03-06T11:35:51.897Z,99368.47
2023-03-06T11:38:23.838Z,99360.44
2023-03-06T11:40:55.940Z,99361.44
2023-03-06T11:43:28.455Z,99358.63
2023-03-06T11:46:01.600Z,99352.41
2023-03-06T11:48:35.778Z,99295.81
2023-03-06T11:51:15.484Z,99243.63
2023-03-06T11:53:43.648Z,99359.47
2023-03-06T11:56:25.024Z,99356.78
2023-03-06T11:59:21.389Z,99349.75
2023-03-06T12:02:00.602Z,99349.75
2023-03-06T12:04:52.632Z,99342.41
2023-03-06T12:07:30.648Z,99352.41
2023-03-06T12:10:09.833Z,99357.75
2023-03-06T12:13:14.727Z,99352.41
2023-03-06T12:16:07.366Z,99352.41
2023-03-06T12:18:43.959Z,99347.44
2023-03-06T12:21:22.402Z,99336.38
2023-03-06T12:24:20.371Z,99347.06
2023-03-06T12:27:01.869Z,99174.66
2023-03-06T12:29:42.151Z,99343.75
2023-03-06T12:32:23.051Z,99245.97
2023-03-06T12:35:18.244Z,99352.78
2023-03-06T12:37:58.943Z,99356.09
2023-03-06T12:40:48.965Z,99356.94
2023-03-06T12:43:55.199Z,99357.75
2023-03-06T12:46:25.546Z,99356.09
2023-03-06T12:49:07.239Z,99356.09
2023-03-06T12:51:36.044Z,99363.97
2023-03-06T12:54:04.444Z,99366.78
2023-03-06T12:56:35.430Z,99357.75
2023-03-06T12:59:03.532Z,99358.78
2023-03-06T13:01:57.667Z,99367.66
2023-03-06T13:04:37.902Z,99361.44
2023-03-06T13:07:19.988Z,99368.47
2023-03-06T13:10:01.689Z,99366.78
2023-03-06T13:12:47.518Z,99366.78
2023-03-06T13:15:38.952Z,99361.44
2023-03-06T13:18:44.023Z,99361.44
2023-03-06T13:21:45.026Z,99356.09
2023-03-06T13:24:19.751Z,99356.09
2023-03-06T13:26:56.467Z,99360.59
2023-03-06T13:29:51.115Z,99359.78
2023-03-06T13:32:20.889Z,99354.44
2023-03-06T13:34:51.786Z,99347.44
2023-03-06T13:37:52.220Z,99342.06
2023-03-06T13:40:29.529Z,99364.28
2023-03-06T13:43:25.217Z,99338.41
2023-03-06T13:45:54.729Z,99347.44
2023-03-06T13:48:44.140Z,99339.56
2023-03-06T13:51:24.424Z,99345.56
2023-03-06T13:54:17.834Z,99345.41
2023-03-06T13:57:18.493Z,99349.91
2023-03-06T14:00:10.402Z,99343.75
2023-03-06T14:03:11.105Z,99341.06
2023-03-06T14:05:45.710Z,99316.63
2023-03-06T14:08:20.353Z,99338.41
2023-03-06T14:10:56.822Z,99338.41
2023-03-06T14:13:34.952Z,99337.53
2023-03-06T14:16:12.754Z,99331.38
2023-03-06T14:18:47.738Z,99338.41
2023-03-06T14:21:22.953Z,99327.69
2023-03-06T14:24:00.704Z,99324.00
2023-03-06T14:26:33.235Z,99320.69
2023-03-06T14:29:03.196Z,99324.00
2023-03-06T14:31:34.241Z,99317.00
2023-03-06T14:34:06.574Z,99314.97
2023-03-06T14:36:37.582Z,99320.31
2023-03-06T14:39:15.041Z,99316.69
2023-03-06T14:41:43.323Z,99311.31
2023-03-06T14:44:18.166Z,99313.00
2023-03-06T14:46:47.565Z,99305.81
2023-03-06T14:49:18.473Z,99311.16
2023-03-06T14:51:48.501Z,99311.97
2023-03-06T14:54:20.783Z,99309.31
2023-03-06T14:56:51.793Z,99180.38
2023-03-06T14:59:25.979Z,99282.41
2023-03-06T15:02:00.949Z,99287.91
2023-03-06T15:04:36.699Z,99195.94
2023-03-06T15:07:10.590Z,99286.25
2023-03-06T15:09:40.403Z,99284.59
2023-03-06T15:12:30.362Z,99275.88
2023-03-06T15:15:00.453Z,99276.56
2023-03-06T15:17:32.101Z,99268.88
2023-03-06T15:20:02.651Z,99271.22
2023-03-06T15:22:37.487Z,99261.50
2023-03-06T15:25:21.951Z,99268.53
2023-03-06T15:27:52.647Z,99268.53
2023-03-06T15:30:27.157Z,99261.50
2023-03-06T15:33:10.939Z,99179.22
2023-03-06T15:35:42.027Z,99286.75
2023-03-06T15:38:26.520Z,99269.53
2023-03-06T15:40:59.646Z,99259.53
2023-03-06T15:43:36.083Z,99261.88
2023-03-06T15:46:07.139Z,99258.22
2023-03-06T15:48:35.559Z,99259.88
2023-03-06T15:51:05.976Z,99263.22
2023-03-06T15:53:34.292Z,99266.59
2023-03-06T15:56:03.442Z,99266.59
2023-03-06T15:58:34.819Z,99259.22
2023-03-06T16:01:03.966Z,99252.53
2023-03-06T16:03:32.383Z,99260.06
2023-03-06T16:06:00.614Z,99177.59
2023-03-06T16:08:30.261Z,99256.88
2023-03-06T16:10:59.166Z,99262.25
2023-03-06T16:13:28.939Z,99256.88
2023-03-06T16:15:57.468Z,99259.56
2023-03-06T16:18:25.600Z,99251.34
2023-03-06T16:20:53.778Z,99256.88
2023-03-06T16:23:21.954Z,99256.03
2023-03-06T16:25:51.591Z,99264.75
2023-03-06T16:28:19.792Z,99264.75
2023-03-06T16:30:48.053Z,99265.59
2023-03-06T16:33:16.242Z,99272.59
2023-03-06T16:35:46.706Z,99264.59
2023-03-06T16:38:15.804Z,99276.94
2023-03-06T16:40:44.047Z,99276.13
2023-03-06T16:43:16.252Z,99269.25
2023-03-06T16:45:44.901Z,99274.28
2023-03-06T16:48:17.096Z,99206.88
2023-03-06T16:50:46.150Z,99269.75
2023-03-06T16:53:15.508Z,99265.59
2023-03-06T16:55:43.848Z,99275.28
2023-03-06T16:58:14.341Z,99270.94
2023-03-06T17:00:42.506Z,99272.59
2023-03-06T17:03:10.733Z,99278.81
2023-03-06T17:05:39.564Z,99274.28
2023-03-06T17:08:07.658Z,99271.44
2023-03-06T17:10:35.855Z,99275.97
2023-03-06T17:13:04.109Z,99166.91
2023-03-06T17:15:33.620Z,99096.38
2023-03-06T17:18:01.733Z,99149.19
2023-03-06T17:20:29.898Z,99270.94
2023-03-06T17:22:58.045Z,99269.59
2023-03-06T17:25:26.260Z,99270.44
2023-03-06T17:27:54.412Z,99285.63
2023-03-06T17:30:22.629Z,99278.63
2023-03-06T17:32:52.181Z,99272.41
2023-03-06T17:35:20.709Z,99280.63
2023-03-06T17:37:49.935Z,99276.97
2023-03-06T17:40:18.136Z,99268.25
2023-03-06T17:42:46.271Z,99268.59
2023-03-06T17:45:14.341Z,99277.28
2023-03-06T17:47:42.448Z,99278.28
2023-03-06T17:50:13.138Z,99274.94
2023-03-06T17:52:41.330Z,99270.56
2023-03-06T17:55:10.249Z,99271.44
2023-03-06T17:57:38.426Z,99267.56
2023-03-06T18:00:08.085Z,99261.88
2023-03-06T18:02:36.399Z,99179.41
2023-03-06T18:05:04.764Z,99262.69
2023-03-06T18:07:34.363Z,99260.50
2023-03-06T18:10:02.535Z,99264.72
2023-03-06T18:12:30.695Z,99258.34
2023-03-06T18:14:58.967Z,99155.88
2023-03-06T18:17:27.050Z,99244.13
2023-03-06T18:19:56.873Z,99150.53
2023-03-06T18:22:24.970Z,99258.22
2023-03-06T18:24:54.512Z,99257.34
2023-03-06T18:27:22.650Z,99251.16
2023-03-06T18:29:52.249Z,99251.16
2023-03-06T18:32:20.432Z,99176.59
2023-03-06T18:34:50.697Z,99254.81
2023-03-06T18:37:19.127Z,99255.16
2023-03-06T18:39:47.358Z,99157.84
2023-03-06T18:42:16.959Z,99229.94
2023-03-06T18:44:47.858Z,99244.13
2023-03-06T18:47:16.564Z,99238.78
2023-03-06T18:49:46.261Z,99244.13
2023-03-06T18:52:14.772Z,99244.13
2023-03-06T18:54:42.888Z,99246.81
2023-03-06T18:57:12.391Z,99240.81
2023-03-06T18:59:41.938Z,99244.47
2023-03-06T19:02:11.803Z,99240.81
2023-03-06T19:04:39.881Z,99248.66
2023-03-06T19:07:08.152Z,99240.66
2023-03-06T19:09:36.303Z,99224.75
2023-03-06T19:12:04.615Z,99229.78
2023-03-06T19:14:32.683Z,99228.78
2023-03-06T19:17:02.185Z,99228.09
2023-03-06T19:19:30.268Z,99228.78
2023-03-06T19:21:59.524Z,99160.56
2023-03-06T19:24:28.025Z,99220.78
2023-03-06T19:26:56.145Z,99220.78
2023-03-06T19:29:24.223Z,99220.78
2023-03-06T19:31:52.416Z,99208.38
2023-03-06T19:34:22.003Z,99217.38
2023-03-06T19:36:51.483Z,99037.91
2023-03-06T19:39:19.768Z,99212.03
2023-03-06T19:41:48.771Z,99209.38
2023-03-06T19:44:17.540Z,99036.56
2023-03-06T19:46:46.023Z,99195.19
2023-03-06T19:49:18.155Z,99193.47
2023-03-06T19:51:47.707Z,99187.31
2023-03-06T19:54:15.828Z,99192.66
2023-03-06T19:56:44.012Z,99190.97
2023-03-06T19:59:12.035Z,99028.25
2023-03-06T20:01:40.706Z,99176.97
2023-03-06T20:04:09.022Z,99103.09
2023-03-06T20:06:38.869Z,99177.59
2023-03-06T20:09:09.934Z,99174.13
2023-03-06T20:11:38.684Z,99175.25
2023-03-06T20:14:08.787Z,99168.75
2023-03-06T20:16:37.423Z,99171.91
2023-03-06T20:19:06.946Z,99172.63
2023-03-06T20:21:38.049Z,99167.97
2023-03-06T20:24:06.861Z,99152.56
2023-03-06T20:26:38.177Z,99155.41
2023-03-06T20:29:06.472Z,99150.22
2023-03-06T20:31:34.840Z,99151.25
2023-03-06T20:34:04.103Z,99149.53
2023-03-06T20:36:35.641Z,99068.19
2023-03-06T20:39:05.978Z,99133.66
2023-03-06T20:41:34.755Z,99140.84
2023-03-06T20:44:06.205Z,99133.84
2023-03-06T20:46:35.460Z,99130.16
2023-03-06T20:49:04.212Z,99131.16
2023-03-06T20:51:36.209Z,99122.28
2023-03-06T20:54:05.030Z,99027.28
2023-03-06T20:56:35.462Z,99122.28
2023-03-06T20:59:05.898Z,99049.97
2023-03-06T21:01:36.145Z,99105.75
2023-03-06T21:04:05.365Z,99110.75
2023-03-06T21:06:34.274Z,98945.47
2023-03-06T21:09:03.398Z,99105.41
2023-03-06T21:11:31.634Z,99094.69
2023-03-06T21:14:03.934Z,98989.22
2023-03-06T21:16:33.940Z,99083.34
2023-03-06T21:19:02.512Z,99090.38
2023-03-06T21:21:33.397Z,99000.88
2023-03-06T21:24:02.882Z,99079.00
2023-03-06T21:26:34.965Z,99077.00
2023-03-06T21:29:03.997Z,98900.09
2023-03-06T21:31:34.748Z,99077.84
2023-03-06T21:34:05.045Z,99067.97
2023-03-06T21:36:33.651Z,98926.94
2023-03-06T21:39:01.795Z,99058.28
2023-03-06T21:41:32.418Z,98950.50
2023-03-06T21:44:02.920Z,98884.09
2023-03-06T21:46:31.601Z,99054.75
2023-03-06T21:49:02.787Z,99054.94
2023-03-06T21:51:30.963Z,98882.56
2023-03-06T21:53:59.087Z,99048.59
2023-03-06T21:56:28.565Z,98914.28
2023-03-06T21:58:58.530Z,99037.91
2023-03-06T22:01:29.057Z,99027.53
2023-03-06T22:03:58.583Z,99036.22
2023-03-06T22:06:30.253Z,99028.19
2023-03-06T22:09:00.027Z,99030.84
2023-03-06T22:11:31.321Z,98949.09
2023-03-06T22:13:59.649Z,98994.81
2023-03-06T22:16:28.382Z,99009.47
2023-03-06T22:18:56.637Z,99007.81
2023-03-06T22:21:25.004Z,99002.47
2023-03-06T22:23:57.370Z,98997.13
2023-03-06T22:26:26.462Z,98993.75
2023-03-06T22:28:54.731Z,98985.41
2023-03-06T22:31:25.284Z,98893.16
2023-03-06T22:33:54.196Z,98834.66
2023-03-06T22:36:23.242Z,98962.69
2023-03-06T22:38:56.881Z,98961.69
2023-03-06T22:41:25.841Z,98959.69
2023-03-06T22:43:54.003Z,98954.34
2023-03-06T22:46:22.440Z,98779.63
2023-03-06T22:48:51.035Z,98954.34
2023-03-06T22:51:20.938Z,98960.69
2023-03-06T22:53:49.856Z,98872.63
2023-03-06T22:56:21.511Z,98941.97
2023-03-06T22:58:50.016Z,98851.63
2023-03-06T23:01:20.281Z,98939.31
2023-03-06T23:03:50.368Z,98938.28
2023-03-06T23:06:20.204Z,98932.09
2023-03-06T23:08:51.129Z,98924.91
2023-03-06T23:11:21.560Z,98920.59
2023-03-06T23:13:49.963Z,98789.09
2023-03-06T23:16:18.016Z,98916.06
2023-03-06T23:18:46.192Z,98906.38
2023-03-06T23:21:16.283Z,98833.59
2023-03-06T23:23:44.456Z,98849.19
2023-03-06T23:26:16.000Z,98892.16
2023-03-06T23:28:46.068Z,98888.50
2023-03-06T23:31:16.753Z,98876.13
2023-03-06T23:33:45.226Z,98800.84
2023-03-06T23:36:15.767Z,98859.09
2023-03-06T23:38:44.363Z,98856.41
2023-03-06T23:41:13.976Z,98837.69
2023-03-06T23:43:42.726Z,98656.88
2023-03-06T23:46:12.936Z,98822.63
2023-03-06T23:48:42.455Z,98824.31
2023-03-06T23:51:14.178Z,98815.47
2023-03-06T23:53:42.626Z,98665.09
2023-03-06T23:56:10.906Z,98822.63
2023-03-06T23:58:39.082Z,98809.28
